sensor_id;sensor_type;location;lat;lon;timestamp;temperature;humidity
25906;DHT22;13713;52.552;13.204;2023-05-16T00:01:56;20.40;54.10
25906;DHT22;13713;52.552;13.204;2023-05-16T00:04:22;20.40;54.20
25906;DHT22;13713;52.552;13.204;2023-05-16T00:06:48;20.40;54.20
25906;DHT22;13713;52.552;13.204;2023-05-16T00:09:13;20.40;54.20
25906;DHT22;13713;52.552;13.204;2023-05-16T00:11:39;20.40;54.20
25906;DHT22;13713;52.552;13.204;2023-05-16T00:14:05;20.40;54.20
25906;DHT22;13713;52.552;13.204;2023-05-16T00:16:30;20.40;54.20
25906;DHT22;13713;52.552;13.204;2023-05-16T00:18:57;20.40;54.20
25906;DHT22;13713;52.552;13.204;2023-05-16T00:21:25;20.40;54.20
25906;DHT22;13713;52.552;13.204;2023-05-16T00:23:51;20.40;54.20
25906;DHT22;13713;52.552;13.204;2023-05-16T00:26:17;20.30;54.20
25906;DHT22;13713;52.552;13.204;2023-05-16T00:28:43;20.30;54.20
25906;DHT22;13713;52.552;13.204;2023-05-16T00:31:09;20.40;54.30
25906;DHT22;13713;52.552;13.204;2023-05-16T00:33:35;20.40;54.30
25906;DHT22;13713;52.552;13.204;2023-05-16T00:36:00;20.40;54.30
25906;DHT22;13713;52.552;13.204;2023-05-16T00:38:26;20.30;54.30
25906;DHT22;13713;52.552;13.204;2023-05-16T00:40:52;20.30;54.30
25906;DHT22;13713;52.552;13.204;2023-05-16T00:43:18;20.30;54.30
25906;DHT22;13713;52.552;13.204;2023-05-16T00:45:44;20.30;54.30
25906;DHT22;13713;52.552;13.204;2023-05-16T00:48:11;20.30;54.30
25906;DHT22;13713;52.552;13.204;2023-05-16T00:50:38;20.30;54.30
25906;DHT22;13713;52.552;13.204;2023-05-16T00:53:05;20.30;54.30
25906;DHT22;13713;52.552;13.204;2023-05-16T00:55:31;20.30;54.40
25906;DHT22;13713;52.552;13.204;2023-05-16T00:57:57;20.30;54.30
25906;DHT22;13713;52.552;13.204;2023-05-16T01:00:24;20.30;54.40
25906;DHT22;13713;52.552;13.204;2023-05-16T01:02:51;20.30;54.40
25906;DHT22;13713;52.552;13.204;2023-05-16T01:05:19;20.30;54.40
25906;DHT22;13713;52.552;13.204;2023-05-16T01:07:45;20.30;54.40
25906;DHT22;13713;52.552;13.204;2023-05-16T01:10:11;20.30;54.40
25906;DHT22;13713;52.552;13.204;2023-05-16T01:12:54;20.30;54.40
25906;DHT22;13713;52.552;13.204;2023-05-16T01:15:29;20.30;54.50
25906;DHT22;13713;52.552;13.204;2023-05-16T01:18:07;20.30;54.40
25906;DHT22;13713;52.552;13.204;2023-05-16T01:26:14;20.30;54.50
25906;DHT22;13713;52.552;13.204;2023-05-16T01:28:41;20.30;54.50
25906;DHT22;13713;52.552;13.204;2023-05-16T01:31:07;20.30;54.50
25906;DHT22;13713;52.552;13.204;2023-05-16T01:33:32;20.30;54.50
25906;DHT22;13713;52.552;13.204;2023-05-16T01:36:29;20.30;54.50
25906;DHT22;13713;52.552;13.204;2023-05-16T01:39:21;20.30;54.60
25906;DHT22;13713;52.552;13.204;2023-05-16T01:42:03;20.30;54.60
25906;DHT22;13713;52.552;13.204;2023-05-16T01:44:34;20.30;54.60
25906;DHT22;13713;52.552;13.204;2023-05-16T01:47:06;20.30;54.60
25906;DHT22;13713;52.552;13.204;2023-05-16T01:49:38;20.30;54.60
25906;DHT22;13713;52.552;13.204;2023-05-16T01:52:19;20.30;54.60
25906;DHT22;13713;52.552;13.204;2023-05-16T01:54:47;20.20;55.20
25906;DHT22;13713;52.552;13.204;2023-05-16T01:57:14;20.20;54.60
25906;DHT22;13713;52.552;13.204;2023-05-16T01:59:42;20.30;54.60
25906;DHT22;13713;52.552;13.204;2023-05-16T02:02:09;20.20;54.60
25906;DHT22;13713;52.552;13.204;2023-05-16T02:04:37;20.20;54.60
25906;DHT22;13713;52.552;13.204;2023-05-16T02:07:02;20.20;54.60
25906;DHT22;13713;52.552;13.204;2023-05-16T02:09:28;20.20;54.70
25906;DHT22;13713;52.552;13.204;2023-05-16T02:11:54;20.20;54.60
25906;DHT22;13713;52.552;13.204;2023-05-16T02:14:20;20.20;54.70
25906;DHT22;13713;52.552;13.204;2023-05-16T02:16:47;20.20;54.70
25906;DHT22;13713;52.552;13.204;2023-05-16T02:19:13;20.20;54.70
25906;DHT22;13713;52.552;13.204;2023-05-16T02:21:39;20.20;54.70
25906;DHT22;13713;52.552;13.204;2023-05-16T02:24:04;20.20;54.70
25906;DHT22;13713;52.552;13.204;2023-05-16T02:26:30;20.20;54.70
25906;DHT22;13713;52.552;13.204;2023-05-16T02:28:56;20.20;54.70
25906;DHT22;13713;52.552;13.204;2023-05-16T02:31:32;20.20;54.70
25906;DHT22;13713;52.552;13.204;2023-05-16T02:33:59;20.20;54.70
25906;DHT22;13713;52.552;13.204;2023-05-16T02:36:26;20.20;54.70
25906;DHT22;13713;52.552;13.204;2023-05-16T02:38:52;20.20;54.80
25906;DHT22;13713;52.552;13.204;2023-05-16T02:41:17;20.20;54.80
25906;DHT22;13713;52.552;13.204;2023-05-16T02:43:43;20.20;54.80
25906;DHT22;13713;52.552;13.204;2023-05-16T02:46:32;20.20;54.80
25906;DHT22;13713;52.552;13.204;2023-05-16T02:48:58;20.20;54.80
25906;DHT22;13713;52.552;13.204;2023-05-16T02:51:26;20.20;54.80
25906;DHT22;13713;52.552;13.204;2023-05-16T02:53:53;20.20;54.80
25906;DHT22;13713;52.552;13.204;2023-05-16T02:56:21;20.20;54.80
25906;DHT22;13713;52.552;13.204;2023-05-16T02:58:48;20.20;54.80
25906;DHT22;13713;52.552;13.204;2023-05-16T03:01:15;20.20;54.90
25906;DHT22;13713;52.552;13.204;2023-05-16T03:03:41;20.20;54.80
25906;DHT22;13713;52.552;13.204;2023-05-16T03:06:07;20.10;54.80
25906;DHT22;13713;52.552;13.204;2023-05-16T03:08:33;20.20;54.80
25906;DHT22;13713;52.552;13.204;2023-05-16T03:11:00;20.20;54.90
25906;DHT22;13713;52.552;13.204;2023-05-16T03:13:25;20.10;54.80
25906;DHT22;13713;52.552;13.204;2023-05-16T03:15:52;20.20;54.90
25906;DHT22;13713;52.552;13.204;2023-05-16T03:18:18;20.20;54.90
25906;DHT22;13713;52.552;13.204;2023-05-16T03:20:44;20.20;54.90
25906;DHT22;13713;52.552;13.204;2023-05-16T03:23:09;20.10;54.80
25906;DHT22;13713;52.552;13.204;2023-05-16T03:25:36;20.10;54.80
25906;DHT22;13713;52.552;13.204;2023-05-16T03:28:03;20.10;54.80
25906;DHT22;13713;52.552;13.204;2023-05-16T03:30:29;20.10;54.80
25906;DHT22;13713;52.552;13.204;2023-05-16T03:32:55;20.10;54.80
25906;DHT22;13713;52.552;13.204;2023-05-16T03:35:21;20.10;54.80
25906;DHT22;13713;52.552;13.204;2023-05-16T03:37:47;20.10;54.80
25906;DHT22;13713;52.552;13.204;2023-05-16T03:40:14;20.10;54.80
25906;DHT22;13713;52.552;13.204;2023-05-16T03:42:40;20.10;54.90
25906;DHT22;13713;52.552;13.204;2023-05-16T03:45:06;20.10;54.80
25906;DHT22;13713;52.552;13.204;2023-05-16T03:47:32;20.10;54.80
25906;DHT22;13713;52.552;13.204;2023-05-16T03:49:58;20.10;54.90
25906;DHT22;13713;52.552;13.204;2023-05-16T03:52:24;20.10;54.90
25906;DHT22;13713;52.552;13.204;2023-05-16T03:54:50;20.10;54.90
25906;DHT22;13713;52.552;13.204;2023-05-16T03:57:15;20.10;54.80
25906;DHT22;13713;52.552;13.204;2023-05-16T03:59:41;20.10;54.90
25906;DHT22;13713;52.552;13.204;2023-05-16T04:02:07;20.10;54.90
25906;DHT22;13713;52.552;13.204;2023-05-16T04:04:33;20.10;54.90
25906;DHT22;13713;52.552;13.204;2023-05-16T04:07:02;20.10;54.90
25906;DHT22;13713;52.552;13.204;2023-05-16T04:09:28;20.10;55.00
25906;DHT22;13713;52.552;13.204;2023-05-16T04:11:53;20.10;54.90
25906;DHT22;13713;52.552;13.204;2023-05-16T04:14:23;20.10;54.90
25906;DHT22;13713;52.552;13.204;2023-05-16T04:16:49;20.10;54.90
25906;DHT22;13713;52.552;13.204;2023-05-16T04:19:15;20.10;55.00
25906;DHT22;13713;52.552;13.204;2023-05-16T04:21:40;20.10;54.90
25906;DHT22;13713;52.552;13.204;2023-05-16T04:24:06;20.10;54.90
25906;DHT22;13713;52.552;13.204;2023-05-16T04:26:32;20.10;54.90
25906;DHT22;13713;52.552;13.204;2023-05-16T04:28:58;20.10;55.00
25906;DHT22;13713;52.552;13.204;2023-05-16T04:31:24;20.10;54.90
25906;DHT22;13713;52.552;13.204;2023-05-16T04:33:51;20.10;55.00
25906;DHT22;13713;52.552;13.204;2023-05-16T04:36:17;20.10;55.00
25906;DHT22;13713;52.552;13.204;2023-05-16T04:38:43;20.10;55.00
25906;DHT22;13713;52.552;13.204;2023-05-16T04:41:08;20.10;55.00
25906;DHT22;13713;52.552;13.204;2023-05-16T04:43:34;20.10;55.00
25906;DHT22;13713;52.552;13.204;2023-05-16T04:46:01;20.10;55.00
25906;DHT22;13713;52.552;13.204;2023-05-16T04:48:26;20.00;54.90
25906;DHT22;13713;52.552;13.204;2023-05-16T04:50:52;20.10;55.00
25906;DHT22;13713;52.552;13.204;2023-05-16T04:53:18;20.10;55.00
25906;DHT22;13713;52.552;13.204;2023-05-16T04:55:43;20.10;55.00
25906;DHT22;13713;52.552;13.204;2023-05-16T04:58:09;20.10;55.00
25906;DHT22;13713;52.552;13.204;2023-05-16T05:00:35;20.10;55.00
25906;DHT22;13713;52.552;13.204;2023-05-16T05:03:01;20.10;55.00
25906;DHT22;13713;52.552;13.204;2023-05-16T05:05:26;20.00;54.90
25906;DHT22;13713;52.552;13.204;2023-05-16T05:07:52;20.00;54.90
25906;DHT22;13713;52.552;13.204;2023-05-16T05:10:18;20.00;54.90
25906;DHT22;13713;52.552;13.204;2023-05-16T05:12:44;20.00;54.90
25906;DHT22;13713;52.552;13.204;2023-05-16T05:15:10;20.00;54.90
25906;DHT22;13713;52.552;13.204;2023-05-16T05:17:35;20.00;55.00
25906;DHT22;13713;52.552;13.204;2023-05-16T05:20:02;20.00;54.90
25906;DHT22;13713;52.552;13.204;2023-05-16T05:22:31;20.00;54.90
25906;DHT22;13713;52.552;13.204;2023-05-16T05:24:57;20.00;54.90
25906;DHT22;13713;52.552;13.204;2023-05-16T05:27:22;19.90;54.80
25906;DHT22;13713;52.552;13.204;2023-05-16T05:29:49;19.90;54.80
25906;DHT22;13713;52.552;13.204;2023-05-16T05:32:15;19.90;54.70
25906;DHT22;13713;52.552;13.204;2023-05-16T05:34:41;19.80;54.60
25906;DHT22;13713;52.552;13.204;2023-05-16T05:37:06;19.80;54.60
25906;DHT22;13713;52.552;13.204;2023-05-16T05:39:32;19.70;54.50
25906;DHT22;13713;52.552;13.204;2023-05-16T05:41:58;19.60;54.40
25906;DHT22;13713;52.552;13.204;2023-05-16T05:44:24;19.60;54.40
25906;DHT22;13713;52.552;13.204;2023-05-16T05:46:49;19.60;54.40
25906;DHT22;13713;52.552;13.204;2023-05-16T05:49:15;19.50;54.30
25906;DHT22;13713;52.552;13.204;2023-05-16T05:51:41;19.50;54.30
25906;DHT22;13713;52.552;13.204;2023-05-16T05:54:07;19.40;54.20
25906;DHT22;13713;52.552;13.204;2023-05-16T05:56:33;19.40;54.20
25906;DHT22;13713;52.552;13.204;2023-05-16T05:58:59;19.30;54.20
25906;DHT22;13713;52.552;13.204;2023-05-16T06:01:25;19.30;54.20
25906;DHT22;13713;52.552;13.204;2023-05-16T06:03:51;19.30;54.20
25906;DHT22;13713;52.552;13.204;2023-05-16T06:06:17;19.20;54.20
25906;DHT22;13713;52.552;13.204;2023-05-16T06:08:43;19.20;54.10
25906;DHT22;13713;52.552;13.204;2023-05-16T06:11:09;19.10;54.10
25906;DHT22;13713;52.552;13.204;2023-05-16T06:13:34;19.10;54.10
25906;DHT22;13713;52.552;13.204;2023-05-16T06:16:00;19.20;54.10
25906;DHT22;13713;52.552;13.204;2023-05-16T06:18:26;19.10;54.10
25906;DHT22;13713;52.552;13.204;2023-05-16T06:20:52;19.20;54.20
25906;DHT22;13713;52.552;13.204;2023-05-16T06:23:18;19.20;54.20
25906;DHT22;13713;52.552;13.204;2023-05-16T06:25:44;19.20;54.80
25906;DHT22;13713;52.552;13.204;2023-05-16T06:28:10;19.30;54.30
25906;DHT22;13713;52.552;13.204;2023-05-16T06:30:35;19.30;54.40
25906;DHT22;13713;52.552;13.204;2023-05-16T06:33:01;19.30;54.40
25906;DHT22;13713;52.552;13.204;2023-05-16T06:35:27;19.40;54.50
25906;DHT22;13713;52.552;13.204;2023-05-16T06:37:55;19.40;54.50
25906;DHT22;13713;52.552;13.204;2023-05-16T06:40:21;19.40;54.50
25906;DHT22;13713;52.552;13.204;2023-05-16T06:42:46;19.50;54.60
25906;DHT22;13713;52.552;13.204;2023-05-16T06:45:12;19.50;54.60
25906;DHT22;13713;52.552;13.204;2023-05-16T06:47:38;19.50;54.60
25906;DHT22;13713;52.552;13.204;2023-05-16T06:50:04;19.50;54.60
25906;DHT22;13713;52.552;13.204;2023-05-16T06:52:31;19.60;54.70
25906;DHT22;13713;52.552;13.204;2023-05-16T06:54:57;19.60;54.70
25906;DHT22;13713;52.552;13.204;2023-05-16T06:57:23;19.70;54.70
25906;DHT22;13713;52.552;13.204;2023-05-16T06:59:48;19.70;54.70
25906;DHT22;13713;52.552;13.204;2023-05-16T07:02:14;19.70;54.70
25906;DHT22;13713;52.552;13.204;2023-05-16T07:04:40;19.80;54.80
25906;DHT22;13713;52.552;13.204;2023-05-16T07:07:06;19.80;54.80
25906;DHT22;13713;52.552;13.204;2023-05-16T07:09:33;19.80;54.80
25906;DHT22;13713;52.552;13.204;2023-05-16T07:11:59;19.80;54.80
25906;DHT22;13713;52.552;13.204;2023-05-16T07:14:25;19.90;55.00
25906;DHT22;13713;52.552;13.204;2023-05-16T07:16:51;19.90;54.90
25906;DHT22;13713;52.552;13.204;2023-05-16T07:19:16;20.00;55.00
25906;DHT22;13713;52.552;13.204;2023-05-16T07:21:42;20.00;55.00
25906;DHT22;13713;52.552;13.204;2023-05-16T07:24:08;20.00;55.00
25906;DHT22;13713;52.552;13.204;2023-05-16T07:26:33;20.00;55.00
25906;DHT22;13713;52.552;13.204;2023-05-16T07:28:59;20.10;55.10
25906;DHT22;13713;52.552;13.204;2023-05-16T07:31:27;20.10;55.10
25906;DHT22;13713;52.552;13.204;2023-05-16T07:33:52;20.10;55.10
25906;DHT22;13713;52.552;13.204;2023-05-16T07:36:18;20.10;55.10
25906;DHT22;13713;52.552;13.204;2023-05-16T07:38:44;20.20;55.20
25906;DHT22;13713;52.552;13.204;2023-05-16T07:41:09;20.20;55.20
25906;DHT22;13713;52.552;13.204;2023-05-16T07:43:35;20.20;55.20
25906;DHT22;13713;52.552;13.204;2023-05-16T07:46:01;20.30;55.80
25906;DHT22;13713;52.552;13.204;2023-05-16T07:48:27;20.30;55.20
25906;DHT22;13713;52.552;13.204;2023-05-16T07:50:54;20.30;55.20
25906;DHT22;13713;52.552;13.204;2023-05-16T07:53:20;20.40;55.30
25906;DHT22;13713;52.552;13.204;2023-05-16T07:55:46;20.40;55.30
25906;DHT22;13713;52.552;13.204;2023-05-16T07:58:12;20.40;55.30
25906;DHT22;13713;52.552;13.204;2023-05-16T08:00:38;20.40;55.30
25906;DHT22;13713;52.552;13.204;2023-05-16T08:03:04;20.50;55.40
25906;DHT22;13713;52.552;13.204;2023-05-16T08:05:30;20.50;55.40
25906;DHT22;13713;52.552;13.204;2023-05-16T08:07:55;20.50;55.40
25906;DHT22;13713;52.552;13.204;2023-05-16T08:10:21;20.60;55.40
25906;DHT22;13713;52.552;13.204;2023-05-16T08:12:48;20.60;55.50
25906;DHT22;13713;52.552;13.204;2023-05-16T08:15:14;20.60;55.50
25906;DHT22;13713;52.552;13.204;2023-05-16T08:17:40;20.60;56.10
25906;DHT22;13713;52.552;13.204;2023-05-16T08:20:06;20.70;55.60
25906;DHT22;13713;52.552;13.204;2023-05-16T08:22:32;20.70;55.60
25906;DHT22;13713;52.552;13.204;2023-05-16T08:24:58;20.70;55.60
25906;DHT22;13713;52.552;13.204;2023-05-16T08:27:27;20.80;55.60
25906;DHT22;13713;52.552;13.204;2023-05-16T08:29:53;20.80;55.70
25906;DHT22;13713;52.552;13.204;2023-05-16T08:32:20;20.80;55.70
25906;DHT22;13713;52.552;13.204;2023-05-16T08:34:46;20.80;55.80
25906;DHT22;13713;52.552;13.204;2023-05-16T08:37:12;20.80;55.70
25906;DHT22;13713;52.552;13.204;2023-05-16T08:39:38;20.80;55.60
25906;DHT22;13713;52.552;13.204;2023-05-16T08:42:04;20.80;55.50
25906;DHT22;13713;52.552;13.204;2023-05-16T08:44:30;20.80;55.40
25906;DHT22;13713;52.552;13.204;2023-05-16T08:46:56;20.70;55.30
25906;DHT22;13713;52.552;13.204;2023-05-16T08:49:26;20.70;55.20
25906;DHT22;13713;52.552;13.204;2023-05-16T08:51:56;20.70;55.10
25906;DHT22;13713;52.552;13.204;2023-05-16T08:54:23;20.60;55.00
25906;DHT22;13713;52.552;13.204;2023-05-16T08:56:49;20.60;54.90
25906;DHT22;13713;52.552;13.204;2023-05-16T08:59:15;20.50;54.80
25906;DHT22;13713;52.552;13.204;2023-05-16T09:01:42;20.40;54.70
25906;DHT22;13713;52.552;13.204;2023-05-16T09:04:08;20.40;54.70
25906;DHT22;13713;52.552;13.204;2023-05-16T09:06:35;20.40;54.60
25906;DHT22;13713;52.552;13.204;2023-05-16T09:09:01;20.30;54.50
25906;DHT22;13713;52.552;13.204;2023-05-16T09:11:27;20.30;54.50
25906;DHT22;13713;52.552;13.204;2023-05-16T09:13:53;20.20;54.40
25906;DHT22;13713;52.552;13.204;2023-05-16T09:16:20;20.20;54.40
25906;DHT22;13713;52.552;13.204;2023-05-16T09:19:00;20.20;54.40
25906;DHT22;13713;52.552;13.204;2023-05-16T09:21:31;20.10;54.20
25906;DHT22;13713;52.552;13.204;2023-05-16T09:24:04;20.10;54.20
25906;DHT22;13713;52.552;13.204;2023-05-16T09:26:31;20.10;54.10
25906;DHT22;13713;52.552;13.204;2023-05-16T09:28:57;20.00;54.00
25906;DHT22;13713;52.552;13.204;2023-05-16T09:31:24;20.00;54.00
25906;DHT22;13713;52.552;13.204;2023-05-16T09:34:01;20.00;54.00
25906;DHT22;13713;52.552;13.204;2023-05-16T09:36:27;19.90;53.90
25906;DHT22;13713;52.552;13.204;2023-05-16T09:38:52;19.90;53.90
25906;DHT22;13713;52.552;13.204;2023-05-16T09:41:20;19.90;53.90
25906;DHT22;13713;52.552;13.204;2023-05-16T09:43:47;19.90;53.80
25906;DHT22;13713;52.552;13.204;2023-05-16T09:46:13;19.90;53.80
25906;DHT22;13713;52.552;13.204;2023-05-16T09:48:41;19.80;53.70
25906;DHT22;13713;52.552;13.204;2023-05-16T09:51:11;19.80;53.70
25906;DHT22;13713;52.552;13.204;2023-05-16T09:53:37;19.80;53.60
25906;DHT22;13713;52.552;13.204;2023-05-16T09:56:10;19.80;53.60
25906;DHT22;13713;52.552;13.204;2023-05-16T09:58:38;19.70;53.60
25906;DHT22;13713;52.552;13.204;2023-05-16T10:01:05;19.70;53.60
25906;DHT22;13713;52.552;13.204;2023-05-16T10:03:34;19.70;53.50
25906;DHT22;13713;52.552;13.204;2023-05-16T10:06:00;19.70;53.60
25906;DHT22;13713;52.552;13.204;2023-05-16T10:08:27;19.70;53.50
25906;DHT22;13713;52.552;13.204;2023-05-16T10:10:55;19.70;53.60
25906;DHT22;13713;52.552;13.204;2023-05-16T10:13:28;19.70;53.50
25906;DHT22;13713;52.552;13.204;2023-05-16T10:15:56;19.70;53.50
25906;DHT22;13713;52.552;13.204;2023-05-16T10:18:27;19.60;53.50
25906;DHT22;13713;52.552;13.204;2023-05-16T10:20:54;19.60;53.50
25906;DHT22;13713;52.552;13.204;2023-05-16T10:23:24;19.60;53.50
25906;DHT22;13713;52.552;13.204;2023-05-16T10:25:51;19.60;53.50
25906;DHT22;13713;52.552;13.204;2023-05-16T10:28:17;19.60;53.50
25906;DHT22;13713;52.552;13.204;2023-05-16T10:30:45;19.60;53.50
25906;DHT22;13713;52.552;13.204;2023-05-16T10:33:12;19.50;53.50
25906;DHT22;13713;52.552;13.204;2023-05-16T10:35:39;19.50;53.50
25906;DHT22;13713;52.552;13.204;2023-05-16T10:38:06;19.50;53.50
25906;DHT22;13713;52.552;13.204;2023-05-16T10:40:34;19.50;53.50
25906;DHT22;13713;52.552;13.204;2023-05-16T10:43:02;19.50;53.50
25906;DHT22;13713;52.552;13.204;2023-05-16T10:45:29;19.50;53.60
25906;DHT22;13713;52.552;13.204;2023-05-16T10:47:59;19.50;53.60
25906;DHT22;13713;52.552;13.204;2023-05-16T10:50:47;19.60;53.70
25906;DHT22;13713;52.552;13.204;2023-05-16T10:53:29;19.60;53.80
25906;DHT22;13713;52.552;13.204;2023-05-16T11:06:29;19.80;54.40
25906;DHT22;13713;52.552;13.204;2023-05-16T11:09:23;19.90;54.40
25906;DHT22;13713;52.552;13.204;2023-05-16T11:19:44;20.10;54.80
25906;DHT22;13713;52.552;13.204;2023-05-16T11:24:58;20.20;54.90
25906;DHT22;13713;52.552;13.204;2023-05-16T11:30:17;20.30;55.00
25906;DHT22;13713;52.552;13.204;2023-05-16T11:32:46;20.40;55.10
25906;DHT22;13713;52.552;13.204;2023-05-16T11:35:14;20.40;55.10
25906;DHT22;13713;52.552;13.204;2023-05-16T11:37:40;20.50;55.20
25906;DHT22;13713;52.552;13.204;2023-05-16T11:40:08;20.50;55.20
25906;DHT22;13713;52.552;13.204;2023-05-16T11:42:40;20.50;55.20
25906;DHT22;13713;52.552;13.204;2023-05-16T11:45:10;20.60;55.30
25906;DHT22;13713;52.552;13.204;2023-05-16T11:47:41;20.60;55.30
25906;DHT22;13713;52.552;13.204;2023-05-16T11:50:14;20.70;55.30
25906;DHT22;13713;52.552;13.204;2023-05-16T11:52:51;20.60;55.30
25906;DHT22;13713;52.552;13.204;2023-05-16T11:55:20;20.70;55.30
25906;DHT22;13713;52.552;13.204;2023-05-16T11:57:46;20.70;55.30
25906;DHT22;13713;52.552;13.204;2023-05-16T12:00:20;20.80;55.40
25906;DHT22;13713;52.552;13.204;2023-05-16T12:02:47;20.80;55.40
25906;DHT22;13713;52.552;13.204;2023-05-16T12:05:15;20.80;55.40
25906;DHT22;13713;52.552;13.204;2023-05-16T12:07:45;20.90;55.50
25906;DHT22;13713;52.552;13.204;2023-05-16T12:10:15;20.90;55.50
25906;DHT22;13713;52.552;13.204;2023-05-16T12:12:46;20.90;55.50
25906;DHT22;13713;52.552;13.204;2023-05-16T12:15:12;20.90;55.50
25906;DHT22;13713;52.552;13.204;2023-05-16T12:17:39;20.90;55.50
25906;DHT22;13713;52.552;13.204;2023-05-16T12:20:08;21.00;55.50
25906;DHT22;13713;52.552;13.204;2023-05-16T12:22:45;21.00;55.50
25906;DHT22;13713;52.552;13.204;2023-05-16T12:25:31;21.00;55.50
25906;DHT22;13713;52.552;13.204;2023-05-16T12:27:58;21.10;55.60
25906;DHT22;13713;52.552;13.204;2023-05-16T12:30:25;21.10;55.60
25906;DHT22;13713;52.552;13.204;2023-05-16T12:32:56;21.10;55.60
25906;DHT22;13713;52.552;13.204;2023-05-16T12:35:25;21.10;55.60
25906;DHT22;13713;52.552;13.204;2023-05-16T12:37:54;21.10;55.60
25906;DHT22;13713;52.552;13.204;2023-05-16T12:40:20;21.10;55.60
25906;DHT22;13713;52.552;13.204;2023-05-16T12:42:52;21.20;55.70
25906;DHT22;13713;52.552;13.204;2023-05-16T12:45:17;21.20;56.10
25906;DHT22;13713;52.552;13.204;2023-05-16T12:47:44;21.20;55.70
25906;DHT22;13713;52.552;13.204;2023-05-16T12:50:14;21.20;55.70
25906;DHT22;13713;52.552;13.204;2023-05-16T12:52:58;21.30;55.80
25906;DHT22;13713;52.552;13.204;2023-05-16T12:55:24;21.30;55.80
25906;DHT22;13713;52.552;13.204;2023-05-16T12:57:51;21.30;55.80
25906;DHT22;13713;52.552;13.204;2023-05-16T13:00:19;21.30;55.80
25906;DHT22;13713;52.552;13.204;2023-05-16T13:02:46;21.30;55.80
25906;DHT22;13713;52.552;13.204;2023-05-16T13:05:13;21.30;55.80
25906;DHT22;13713;52.552;13.204;2023-05-16T13:07:39;21.40;55.80
25906;DHT22;13713;52.552;13.204;2023-05-16T13:10:09;21.40;55.80
25906;DHT22;13713;52.552;13.204;2023-05-16T13:12:36;21.40;55.90
25906;DHT22;13713;52.552;13.204;2023-05-16T13:15:03;21.40;55.80
25906;DHT22;13713;52.552;13.204;2023-05-16T13:17:29;21.40;55.80
25906;DHT22;13713;52.552;13.204;2023-05-16T13:19:55;21.40;55.80
25906;DHT22;13713;52.552;13.204;2023-05-16T13:22:21;21.50;56.50
25906;DHT22;13713;52.552;13.204;2023-05-16T13:24:46;21.50;55.90
25906;DHT22;13713;52.552;13.204;2023-05-16T13:27:15;21.50;56.00
25906;DHT22;13713;52.552;13.204;2023-05-16T13:29:42;21.50;55.90
25906;DHT22;13713;52.552;13.204;2023-05-16T13:32:08;21.50;55.90
25906;DHT22;13713;52.552;13.204;2023-05-16T13:34:34;21.50;56.00
25906;DHT22;13713;52.552;13.204;2023-05-16T13:37:00;21.50;55.90
25906;DHT22;13713;52.552;13.204;2023-05-16T13:39:25;21.60;56.00
25906;DHT22;13713;52.552;13.204;2023-05-16T13:41:51;21.50;55.90
25906;DHT22;13713;52.552;13.204;2023-05-16T13:44:18;21.60;56.00
25906;DHT22;13713;52.552;13.204;2023-05-16T13:46:44;21.60;56.00
25906;DHT22;13713;52.552;13.204;2023-05-16T13:49:10;21.60;56.00
25906;DHT22;13713;52.552;13.204;2023-05-16T13:51:36;21.60;56.00
25906;DHT22;13713;52.552;13.204;2023-05-16T13:54:01;21.60;56.00
25906;DHT22;13713;52.552;13.204;2023-05-16T13:56:27;21.60;56.00
25906;DHT22;13713;52.552;13.204;2023-05-16T13:58:53;21.60;56.10
25906;DHT22;13713;52.552;13.204;2023-05-16T14:01:18;21.60;56.00
25906;DHT22;13713;52.552;13.204;2023-05-16T14:03:44;21.70;56.10
25906;DHT22;13713;52.552;13.204;2023-05-16T14:06:10;21.70;56.10
25906;DHT22;13713;52.552;13.204;2023-05-16T14:08:35;21.70;56.00
25906;DHT22;13713;52.552;13.204;2023-05-16T14:11:01;21.70;56.00
25906;DHT22;13713;52.552;13.204;2023-05-16T14:13:27;21.70;56.00
25906;DHT22;13713;52.552;13.204;2023-05-16T14:15:52;21.70;56.00
25906;DHT22;13713;52.552;13.204;2023-05-16T14:18:18;21.70;56.00
25906;DHT22;13713;52.552;13.204;2023-05-16T14:20:44;21.70;56.00
25906;DHT22;13713;52.552;13.204;2023-05-16T14:23:09;21.70;56.00
25906;DHT22;13713;52.552;13.204;2023-05-16T14:25:35;21.70;56.00
25906;DHT22;13713;52.552;13.204;2023-05-16T14:28:01;21.70;56.00
25906;DHT22;13713;52.552;13.204;2023-05-16T14:30:26;21.70;56.60
25906;DHT22;13713;52.552;13.204;2023-05-16T14:32:52;21.70;56.00
25906;DHT22;13713;52.552;13.204;2023-05-16T14:35:19;21.70;56.00
25906;DHT22;13713;52.552;13.204;2023-05-16T14:37:45;21.70;55.90
25906;DHT22;13713;52.552;13.204;2023-05-16T14:40:10;21.70;55.90
25906;DHT22;13713;52.552;13.204;2023-05-16T14:42:36;21.70;55.90
25906;DHT22;13713;52.552;13.204;2023-05-16T14:45:02;21.70;55.90
25906;DHT22;13713;52.552;13.204;2023-05-16T14:47:28;21.70;55.90
25906;DHT22;13713;52.552;13.204;2023-05-16T14:49:55;21.70;55.90
25906;DHT22;13713;52.552;13.204;2023-05-16T14:52:21;21.70;55.90
25906;DHT22;13713;52.552;13.204;2023-05-16T14:54:46;21.60;55.80
25906;DHT22;13713;52.552;13.204;2023-05-16T14:57:12;21.60;55.80
25906;DHT22;13713;52.552;13.204;2023-05-16T14:59:38;21.70;55.90
25906;DHT22;13713;52.552;13.204;2023-05-16T15:02:04;21.60;55.70
25906;DHT22;13713;52.552;13.204;2023-05-16T15:04:31;21.60;55.70
25906;DHT22;13713;52.552;13.204;2023-05-16T15:06:57;21.60;55.70
25906;DHT22;13713;52.552;13.204;2023-05-16T15:09:23;21.60;55.70
25906;DHT22;13713;52.552;13.204;2023-05-16T15:11:48;21.60;55.70
25906;DHT22;13713;52.552;13.204;2023-05-16T15:14:14;21.60;55.70
25906;DHT22;13713;52.552;13.204;2023-05-16T15:16:40;21.60;55.60
25906;DHT22;13713;52.552;13.204;2023-05-16T15:19:06;21.60;55.60
25906;DHT22;13713;52.552;13.204;2023-05-16T15:21:32;21.60;55.60
25906;DHT22;13713;52.552;13.204;2023-05-16T15:23:58;21.60;55.60
25906;DHT22;13713;52.552;13.204;2023-05-16T15:26:24;21.60;55.60
25906;DHT22;13713;52.552;13.204;2023-05-16T15:28:49;21.60;55.60
25906;DHT22;13713;52.552;13.204;2023-05-16T15:31:15;21.60;55.50
25906;DHT22;13713;52.552;13.204;2023-05-16T15:33:41;21.60;55.50
25906;DHT22;13713;52.552;13.204;2023-05-16T15:36:07;21.60;55.50
25906;DHT22;13713;52.552;13.204;2023-05-16T15:38:32;21.60;55.50
25906;DHT22;13713;52.552;13.204;2023-05-16T15:40:58;21.60;55.40
25906;DHT22;13713;52.552;13.204;2023-05-16T15:43:24;21.50;55.30
25906;DHT22;13713;52.552;13.204;2023-05-16T15:45:50;21.50;55.30